createdAt,value
2018-01-26T00:01:42.888Z,101031.70
2018-01-26T00:04:11.345Z,101036.30
2018-01-26T00:06:39.955Z,101043.16
2018-01-26T00:09:08.401Z,101050.75
2018-01-26T00:11:36.817Z,101043.59
2018-01-26T00:14:05.494Z,101047.48
2018-01-26T00:16:33.953Z,101050.48
2018-01-26T00:19:02.503Z,101039.85
2018-01-26T00:21:31.755Z,101047.08
2018-01-26T00:24:00.204Z,101051.19
2018-01-26T00:26:28.625Z,101041.52
2018-01-26T00:28:57.110Z,101039.28
2018-01-26T00:31:25.543Z,101038.67
2018-01-26T00:33:53.985Z,101047.08
2018-01-26T00:36:23.080Z,101046.38
2018-01-26T00:38:51.632Z,101043.81
2018-01-26T00:41:20.115Z,101049.31
2018-01-26T00:43:49.828Z,101049.56
2018-01-26T00:46:18.346Z,101054.65
2018-01-26T00:48:46.995Z,101060.69
2018-01-26T00:51:16.027Z,101053.26
2018-01-26T00:53:44.528Z,101054.20
2018-01-26T00:56:13.058Z,101051.29
2018-01-26T00:58:42.353Z,101051.20
2018-01-26T01:01:10.812Z,101058.40
2018-01-26T01:03:39.266Z,101050.89
2018-01-26T01:06:08.140Z,101052.73
2018-01-26T01:08:37.201Z,101055.58
2018-01-26T01:11:05.663Z,101055.19
2018-01-26T01:13:34.164Z,101049.78
2018-01-26T01:16:02.612Z,101058.06
2018-01-26T01:18:31.046Z,101055.03
2018-01-26T01:20:59.527Z,101047.59
2018-01-26T01:23:27.967Z,101039.91
2018-01-26T01:25:56.415Z,101039.27
2018-01-26T01:28:24.873Z,101046.97
2018-01-26T01:30:53.343Z,101053.08
2018-01-26T01:33:21.958Z,101057.85
2018-01-26T01:35:50.516Z,101053.27
2018-01-26T01:38:18.996Z,101055.45
2018-01-26T01:40:47.478Z,101056.88
2018-01-26T01:43:16.011Z,101057.05
2018-01-26T01:45:44.562Z,101062.20
2018-01-26T01:48:13.082Z,101065.19
2018-01-26T01:50:42.165Z,101060.02
2018-01-26T01:53:10.641Z,101061.20
2018-01-26T01:55:39.162Z,101057.73
2018-01-26T01:58:07.639Z,101066.47
2018-01-26T02:00:36.153Z,101068.48
2018-01-26T02:03:04.575Z,101074.31
2018-01-26T02:05:33.225Z,101077.11
2018-01-26T02:08:01.700Z,101067.61
2018-01-26T02:10:30.127Z,101070.45
2018-01-26T02:12:58.628Z,101068.08
2018-01-26T02:15:27.067Z,101074.19
2018-01-26T02:17:55.726Z,101071.09
2018-01-26T02:20:24.513Z,101069.88
2018-01-26T02:22:52.935Z,101066.32
2018-01-26T02:25:21.446Z,101061.14
2018-01-26T02:27:50.592Z,101069.28
2018-01-26T02:30:19.285Z,101071.87
2018-01-26T02:32:47.849Z,101066.33
2018-01-26T02:35:17.170Z,101057.02
2018-01-26T02:37:45.635Z,101069.31
2018-01-26T02:40:14.150Z,101071.30
2018-01-26T02:42:42.828Z,101070.33
2018-01-26T02:45:11.384Z,101075.48
2018-01-26T02:47:40.847Z,101079.17
2018-01-26T02:50:09.372Z,101071.72
2018-01-26T02:52:37.853Z,101079.93
2018-01-26T02:55:06.309Z,101074.89
2018-01-26T02:57:35.543Z,101078.16
2018-01-26T03:00:04.111Z,101078.38
2018-01-26T03:02:32.542Z,101078.17
2018-01-26T03:05:01.069Z,101082.56
2018-01-26T03:07:29.482Z,101077.15
2018-01-26T03:09:57.923Z,101080.17
2018-01-26T03:12:26.711Z,101078.89
2018-01-26T03:14:55.186Z,101090.70
2018-01-26T03:17:23.628Z,101082.59
2018-01-26T03:19:52.152Z,101082.66
2018-01-26T03:22:20.636Z,101084.42
2018-01-26T03:24:49.144Z,101088.21
2018-01-26T03:27:18.313Z,101096.74
2018-01-26T03:29:46.797Z,101102.36
2018-01-26T03:32:15.275Z,101100.73
2018-01-26T03:34:43.789Z,101099.75
2018-01-26T03:37:13.363Z,101103.74
2018-01-26T03:39:41.845Z,101116.59
2018-01-26T03:42:10.670Z,101116.27
2018-01-26T03:44:39.212Z,101129.08
2018-01-26T03:47:07.693Z,101127.75
2018-01-26T03:49:36.287Z,101125.31
2018-01-26T03:52:04.755Z,101130.02
2018-01-26T03:54:33.235Z,101133.80
2018-01-26T03:57:02.575Z,101132.73
2018-01-26T03:59:31.072Z,101131.95
2018-01-26T04:01:59.531Z,101135.55
2018-01-26T04:04:28.080Z,101137.36
2018-01-26T04:06:56.524Z,101135.30
2018-01-26T04:09:24.942Z,101141.42
2018-01-26T04:11:53.759Z,101137.48
2018-01-26T04:14:22.204Z,101140.73
2018-01-26T04:16:50.697Z,101137.74
2018-01-26T04:19:20.052Z,101139.63
2018-01-26T04:21:48.591Z,101150.34
2018-01-26T04:24:17.677Z,101156.38
2018-01-26T04:26:47.095Z,101165.02
2018-01-26T04:29:15.582Z,101166.27
2018-01-26T04:31:44.188Z,101167.81
2018-01-26T04:34:12.949Z,101164.53
2018-01-26T04:36:41.462Z,101168.23
2018-01-26T04:39:10.717Z,101162.34
2018-01-26T04:41:39.857Z,101160.11
2018-01-26T04:44:08.302Z,101160.16
2018-01-26T04:46:36.818Z,101156.30
2018-01-26T04:49:06.144Z,101157.92
2018-01-26T04:51:34.576Z,101158.17
2018-01-26T04:54:03.007Z,101157.34
2018-01-26T04:56:32.427Z,101156.49
2018-01-26T04:59:00.884Z,101150.67
2018-01-26T05:01:29.302Z,101157.94
2018-01-26T05:03:57.781Z,101158.70
2018-01-26T05:06:26.266Z,101154.71
2018-01-26T05:08:54.778Z,101158.87
2018-01-26T05:11:23.470Z,101153.77
2018-01-26T05:13:51.974Z,101153.84
2018-01-26T05:16:20.503Z,101153.92
2018-01-26T05:18:49.091Z,101146.47
2018-01-26T05:21:17.675Z,101154.02
2018-01-26T05:23:46.175Z,101154.05
2018-01-26T05:26:14.834Z,101157.00
2018-01-26T05:28:43.418Z,101161.64
2018-01-26T05:31:11.902Z,101162.63
2018-01-26T05:33:40.424Z,101165.05
2018-01-26T05:36:08.847Z,101169.04
2018-01-26T05:38:37.284Z,101176.66
2018-01-26T05:41:06.003Z,101182.91
2018-01-26T05:43:34.454Z,101186.66
2018-01-26T05:46:02.910Z,101189.78
2018-01-26T05:48:31.662Z,101186.78
2018-01-26T05:51:00.110Z,101182.73
2018-01-26T05:53:28.605Z,101181.09
2018-01-26T05:55:57.894Z,101189.83
2018-01-26T05:58:26.357Z,101171.33
2018-01-26T06:00:54.786Z,101177.89
2018-01-26T06:03:23.316Z,101177.47
2018-01-26T06:05:51.850Z,101181.72
2018-01-26T06:08:20.386Z,101184.18
2018-01-26T06:13:25.435Z,101197.58
2018-01-26T06:15:54.014Z,101201.91
2018-01-26T06:18:22.551Z,101207.13
2018-01-26T06:20:51.150Z,101210.80
2018-01-26T06:23:20.343Z,101218.14
2018-01-26T06:25:48.832Z,101215.06
2018-01-26T06:28:17.324Z,101219.23
2018-01-26T06:30:45.976Z,101220.97
2018-01-26T06:33:14.469Z,101217.08
2018-01-26T06:35:42.950Z,101226.31
2018-01-26T06:38:11.438Z,101237.92
2018-01-26T06:40:39.851Z,101237.45
2018-01-26T06:43:08.322Z,101235.88
2018-01-26T06:45:37.715Z,101235.36
2018-01-26T06:48:06.170Z,101238.38
2018-01-26T06:50:34.738Z,101246.34
2018-01-26T06:53:03.739Z,101251.50
2018-01-26T06:55:32.211Z,101247.84
2018-01-26T06:58:00.647Z,101258.88
2018-01-26T07:00:29.122Z,101257.33
2018-01-26T07:02:57.704Z,101261.78
2018-01-26T07:05:26.141Z,101267.34
2018-01-26T07:07:54.664Z,101271.98
2018-01-26T07:10:23.118Z,101268.48
2018-01-26T07:12:51.624Z,101270.58
2018-01-26T07:15:20.274Z,101272.97
2018-01-26T07:17:48.771Z,101274.30
2018-01-26T07:20:18.101Z,101286.59
2018-01-26T07:22:48.377Z,101288.09
2018-01-26T07:25:16.862Z,101294.84
2018-01-26T07:27:45.483Z,101297.89
2018-01-26T07:30:14.994Z,101309.97
2018-01-26T07:32:43.763Z,101313.38
2018-01-26T07:35:13.049Z,101316.17
2018-01-26T07:37:41.529Z,101316.44
2018-01-26T07:40:09.989Z,101331.55
2018-01-26T07:42:38.659Z,101323.23
2018-01-26T07:45:07.138Z,101321.80
2018-01-26T07:47:35.599Z,101320.06
2018-01-26T07:50:04.134Z,101324.44
2018-01-26T07:52:32.602Z,101325.47
2018-01-26T07:55:01.097Z,101331.60
2018-01-26T07:57:29.579Z,101334.63
2018-01-26T07:59:58.077Z,101337.47
2018-01-26T08:02:26.525Z,101336.38
2018-01-26T08:04:54.978Z,101339.72
2018-01-26T08:07:23.602Z,101342.50
2018-01-26T08:09:52.185Z,101347.20
2018-01-26T08:12:20.685Z,101346.42
2018-01-26T08:14:49.938Z,101345.81
2018-01-26T08:17:18.518Z,101357.31
2018-01-26T08:19:47.066Z,101363.14
2018-01-26T08:22:15.845Z,101368.66
2018-01-26T08:24:44.365Z,101371.39
2018-01-26T08:27:13.159Z,101374.17
2018-01-26T08:29:41.641Z,101374.88
2018-01-26T08:32:10.159Z,101378.41
2018-01-26T08:34:38.595Z,101385.75
2018-01-26T08:37:08.057Z,101382.44
2018-01-26T08:39:36.507Z,101384.38
2018-01-26T08:42:04.995Z,101388.73
2018-01-26T08:44:34.315Z,101387.95
2018-01-26T08:47:02.742Z,101387.50
2018-01-26T08:49:31.171Z,101389.86
2018-01-26T08:51:59.910Z,101389.41
2018-01-26T08:54:28.361Z,101379.86
2018-01-26T08:56:56.822Z,101388.73
2018-01-26T08:59:25.485Z,101389.34
2018-01-26T09:01:53.934Z,101397.90
2018-01-26T09:04:22.413Z,101400.84
2018-01-26T09:06:51.188Z,101403.41
2018-01-26T09:09:19.650Z,101403.14
2018-01-26T09:11:48.122Z,101406.89
2018-01-26T09:14:16.853Z,101408.69
2018-01-26T09:16:45.383Z,101422.25
2018-01-26T09:19:14.111Z,101425.86
2018-01-26T09:21:42.751Z,101430.88
2018-01-26T09:24:11.243Z,101431.40
2018-01-26T09:26:39.712Z,101431.72
2018-01-26T09:29:08.179Z,101428.26
2018-01-26T09:31:36.639Z,101438.99
2018-01-26T09:34:05.081Z,101435.62
2018-01-26T09:36:34.379Z,101445.19
2018-01-26T09:39:02.834Z,101456.45
2018-01-26T09:41:31.290Z,101460.13
2018-01-26T09:43:59.900Z,101464.92
2018-01-26T09:46:28.314Z,101464.84
2018-01-26T09:48:56.779Z,101474.80
2018-01-26T09:51:25.877Z,101463.64
2018-01-26T09:53:54.316Z,101466.45
2018-01-26T09:56:22.816Z,101474.78
2018-01-26T09:58:52.055Z,101479.88
2018-01-26T10:01:20.483Z,101492.58
2018-01-26T10:03:48.964Z,101495.55
2018-01-26T10:06:17.548Z,101496.41
2018-01-26T10:08:46.126Z,101502.59
2018-01-26T10:11:14.583Z,101502.73
2018-01-26T10:13:43.200Z,101502.69
2018-01-26T10:16:11.743Z,101507.64
2018-01-26T10:18:40.201Z,101509.36
2018-01-26T10:21:08.698Z,101509.03
2018-01-26T10:23:37.123Z,101514.34
2018-01-26T10:26:05.557Z,101521.23
2018-01-26T10:28:34.041Z,101514.85
2018-01-26T10:31:02.492Z,101510.87
2018-01-26T10:33:31.424Z,101512.38
2018-01-26T10:35:59.927Z,101523.91
2018-01-26T10:38:28.409Z,101523.47
2018-01-26T10:40:56.848Z,101524.91
2018-01-26T10:43:25.614Z,101526.67
2018-01-26T10:45:54.055Z,101526.45
2018-01-26T10:48:22.507Z,101523.37
2018-01-26T10:50:51.115Z,101527.38
2018-01-26T10:53:19.877Z,101523.44
2018-01-26T10:55:48.360Z,101523.30
2018-01-26T10:58:17.350Z,101529.30
2018-01-26T11:00:46.058Z,101538.66
2018-01-26T11:03:14.656Z,101533.62
2018-01-26T11:05:43.241Z,101533.52
2018-01-26T11:08:11.721Z,101531.65
2018-01-26T11:10:40.258Z,101525.93
2018-01-26T11:13:08.734Z,101523.53
2018-01-26T11:15:37.187Z,101524.02
2018-01-26T11:18:05.638Z,101526.48
2018-01-26T11:20:34.590Z,101531.06
2018-01-26T11:23:03.079Z,101527.86
2018-01-26T11:25:31.520Z,101533.77
2018-01-26T11:28:00.108Z,101525.59
2018-01-26T11:30:28.539Z,101528.67
2018-01-26T11:32:56.968Z,101534.00
2018-01-26T11:35:25.457Z,101540.16
2018-01-26T11:37:54.205Z,101538.40
2018-01-26T11:40:22.696Z,101539.26
2018-01-26T11:42:51.729Z,101542.73
2018-01-26T11:45:20.212Z,101547.70
2018-01-26T11:47:48.687Z,101546.33
2018-01-26T11:50:17.347Z,101549.77
2018-01-26T11:52:45.787Z,101550.20
2018-01-26T11:55:15.362Z,101552.08
2018-01-26T11:57:44.011Z,101556.85
2018-01-26T12:00:12.490Z,101549.58
2018-01-26T12:02:41.617Z,101553.80
2018-01-26T12:05:11.202Z,101558.27
2018-01-26T12:07:39.680Z,101562.13
2018-01-26T12:10:08.137Z,101551.34
2018-01-26T12:12:36.904Z,101554.55
2018-01-26T12:15:05.355Z,101548.20
2018-01-26T12:17:33.796Z,101544.41
2018-01-26T12:20:02.304Z,101546.28
2018-01-26T12:22:30.777Z,101552.37
2018-01-26T12:24:59.237Z,101552.95
2018-01-26T12:27:27.765Z,101547.09
2018-01-26T12:29:56.369Z,101557.30
2018-01-26T12:32:24.809Z,101546.08
2018-01-26T12:34:53.846Z,101551.13
2018-01-26T12:37:22.330Z,101554.97
2018-01-26T12:39:50.814Z,101550.31
2018-01-26T12:42:19.425Z,101549.08
2018-01-26T12:44:47.860Z,101551.31
2018-01-26T12:47:16.416Z,101556.47
2018-01-26T12:49:44.991Z,101552.47
2018-01-26T12:52:13.453Z,101554.83
2018-01-26T12:54:41.959Z,101558.75
2018-01-26T12:57:10.879Z,101559.14
2018-01-26T12:59:39.327Z,101552.64
2018-01-26T13:02:07.775Z,101555.73
2018-01-26T13:04:36.264Z,101571.17
2018-01-26T13:07:04.699Z,101568.03
2018-01-26T13:09:33.144Z,101574.05
2018-01-26T13:12:01.622Z,101576.20
2018-01-26T13:14:30.172Z,101573.23
2018-01-26T13:16:58.624Z,101572.89
2018-01-26T13:19:27.161Z,101568.77
2018-01-26T13:21:55.633Z,101566.66
2018-01-26T13:24:24.686Z,101566.75
2018-01-26T13:26:53.265Z,101567.72
2018-01-26T13:29:21.800Z,101568.03
2018-01-26T13:31:50.353Z,101576.28
2018-01-26T13:34:18.838Z,101577.36
2018-01-26T13:36:47.454Z,101582.82
2018-01-26T13:39:15.949Z,101579.59
2018-01-26T13:41:44.630Z,101587.25
2018-01-26T13:44:13.207Z,101587.42
2018-01-26T13:46:41.673Z,101594.98
2018-01-26T13:49:10.867Z,101591.89
2018-01-26T13:51:39.280Z,101598.81
2018-01-26T13:54:07.695Z,101603.77
2018-01-26T13:56:36.178Z,101597.88
2018-01-26T13:59:04.623Z,101598.48
2018-01-26T14:01:33.037Z,101600.44
2018-01-26T14:04:02.542Z,101601.80
2018-01-26T14:06:31.027Z,101604.65
2018-01-26T14:08:59.475Z,101613.92
2018-01-26T14:11:29.190Z,101628.79
2018-01-26T14:13:57.616Z,101630.04
2018-01-26T14:16:26.043Z,101633.45
2018-01-26T14:18:55.192Z,101633.39
2018-01-26T14:21:23.645Z,101641.47
2018-01-26T14:23:52.105Z,101642.23
2018-01-26T14:26:20.669Z,101644.38
2018-01-26T14:28:49.218Z,101644.17
2018-01-26T14:31:17.726Z,101644.81
2018-01-26T14:33:46.448Z,101645.22
2018-01-26T14:36:14.923Z,101646.66
2018-01-26T14:38:43.434Z,101654.36
2018-01-26T14:41:12.512Z,101665.95
2018-01-26T14:43:41.193Z,101667.02
2018-01-26T14:46:09.626Z,101667.76
2018-01-26T14:48:38.233Z,101672.66
2018-01-26T14:51:06.764Z,101681.28
2018-01-26T14:53:35.199Z,101684.19
2018-01-26T14:56:04.660Z,101696.50
2018-01-26T14:58:33.053Z,101693.61
2018-01-26T15:01:01.513Z,101697.67
2018-01-26T15:03:31.038Z,101705.50
2018-01-26T15:05:59.460Z,101710.22
2018-01-26T15:08:27.876Z,101713.45
2018-01-26T15:10:56.347Z,101720.63
2018-01-26T15:13:24.799Z,101723.45
2018-01-26T15:15:53.238Z,101734.81
2018-01-26T15:18:21.819Z,101730.96
2018-01-26T15:20:50.259Z,101728.91
2018-01-26T15:23:18.706Z,101730.20
2018-01-26T15:25:47.353Z,101732.50
2018-01-26T15:28:15.912Z,101732.97
2018-01-26T15:30:44.377Z,101742.75
2018-01-26T15:33:14.304Z,101742.20
2018-01-26T15:35:43.447Z,101748.95
2018-01-26T15:38:11.882Z,101753.62
2018-01-26T15:40:40.503Z,101759.78
2018-01-26T15:43:09.044Z,101755.94
2018-01-26T15:45:37.469Z,101753.74
2018-01-26T15:48:05.945Z,101761.15
2018-01-26T15:50:34.348Z,101755.90
2018-01-26T15:53:02.769Z,101757.45
2018-01-26T15:55:31.561Z,101771.44
2018-01-26T15:58:00.024Z,101768.34
2018-01-26T16:00:28.508Z,101765.91
2018-01-26T16:02:56.946Z,101773.31
2018-01-26T16:05:25.441Z,101774.58
2018-01-26T16:07:53.973Z,101778.56
2018-01-26T16:10:22.755Z,101790.70
2018-01-26T16:12:51.262Z,101792.13
2018-01-26T16:15:19.780Z,101804.86
2018-01-26T16:17:48.336Z,101806.00
2018-01-26T16:20:16.821Z,101805.00
2018-01-26T16:22:45.328Z,101809.81
2018-01-26T16:25:14.124Z,101818.08
2018-01-26T16:27:42.687Z,101824.70
2018-01-26T16:30:11.256Z,101820.81
2018-01-26T16:32:39.724Z,101832.24
2018-01-26T16:35:08.153Z,101834.50
2018-01-26T16:37:36.584Z,101837.82
2018-01-26T16:40:05.120Z,101834.96
2018-01-26T16:42:33.520Z,101846.99
2018-01-26T16:45:02.008Z,101852.48
2018-01-26T16:47:30.481Z,101853.02
2018-01-26T16:49:58.938Z,101852.95
2018-01-26T16:52:27.381Z,101857.80
2018-01-26T16:54:55.906Z,101867.20
2018-01-26T16:57:24.415Z,101872.75
2018-01-26T16:59:52.847Z,101876.50
2018-01-26T17:02:21.544Z,101876.66
2018-01-26T17:04:50.003Z,101883.73
2018-01-26T17:07:18.493Z,101884.07
2018-01-26T17:09:47.265Z,101888.59
2018-01-26T17:12:15.716Z,101900.31
2018-01-26T17:14:44.420Z,101894.34
2018-01-26T17:17:12.929Z,101895.08
2018-01-26T17:19:42.847Z,101894.72
2018-01-26T17:22:11.296Z,101893.78
2018-01-26T17:24:39.783Z,101889.59
2018-01-26T17:27:08.279Z,101892.45
2018-01-26T17:29:36.742Z,101885.83
2018-01-26T17:32:06.189Z,101892.14
2018-01-26T17:34:34.668Z,101898.70
2018-01-26T17:37:03.227Z,101905.72
2018-01-26T17:39:31.744Z,101902.35
2018-01-26T17:42:00.191Z,101911.74
2018-01-26T17:44:28.643Z,101913.50
2018-01-26T17:46:58.732Z,101915.58
2018-01-26T17:49:27.140Z,101919.11
2018-01-26T17:51:55.620Z,101920.23
2018-01-26T17:54:24.585Z,101922.39
2018-01-26T17:56:53.076Z,101923.77
2018-01-26T17:59:21.547Z,101923.67
2018-01-26T18:01:50.168Z,101925.22
2018-01-26T18:04:18.680Z,101924.08
2018-01-26T18:06:47.150Z,101928.82
2018-01-26T18:09:16.250Z,101925.68
2018-01-26T18:11:44.816Z,101933.20
2018-01-26T18:14:13.336Z,101933.82
2018-01-26T18:16:43.608Z,101940.94
2018-01-26T18:19:12.132Z,101944.67
2018-01-26T18:21:40.553Z,101948.66
2018-01-26T18:24:09.010Z,101949.58
2018-01-26T18:26:37.436Z,101952.06
2018-01-26T18:29:05.896Z,101951.66
2018-01-26T18:31:35.320Z,101954.72
2018-01-26T18:34:03.906Z,101958.20
2018-01-26T18:36:32.329Z,101956.53
2018-01-26T18:39:00.842Z,101958.70
2018-01-26T18:41:29.293Z,101968.16
2018-01-26T18:43:57.850Z,101965.52
2018-01-26T18:46:26.923Z,101976.72
2018-01-26T18:48:55.405Z,101973.06
2018-01-26T18:51:23.896Z,101985.70
2018-01-26T18:53:52.879Z,101992.79
2018-01-26T18:56:21.436Z,101988.81
2018-01-26T18:58:49.856Z,101999.72
2018-01-26T19:01:18.395Z,101996.20
2018-01-26T19:03:47.282Z,102001.73
2018-01-26T19:06:15.711Z,102007.14
2018-01-26T19:08:44.305Z,102003.09
2018-01-26T19:11:12.784Z,102011.30
2018-01-26T19:13:41.257Z,102012.55
2018-01-26T19:16:09.734Z,102021.19
2018-01-26T19:18:39.672Z,102020.54
2018-01-26T19:21:08.213Z,102022.76
2018-01-26T19:23:36.704Z,102031.34
2018-01-26T19:26:05.149Z,102040.33
2018-01-26T19:28:33.562Z,102045.77
2018-01-26T19:31:03.032Z,102044.90
2018-01-26T19:33:31.468Z,102048.31
2018-01-26T19:36:00.324Z,102047.86
2018-01-26T19:38:28.922Z,102045.61
2018-01-26T19:40:57.426Z,102054.39
2018-01-26T19:43:26.017Z,102053.49
2018-01-26T19:45:54.493Z,102055.69
2018-01-26T19:48:22.919Z,102061.86
2018-01-26T19:50:51.580Z,102060.64
2018-01-26T19:53:20.096Z,102064.34
2018-01-26T19:55:48.517Z,102063.64
2018-01-26T19:58:17.049Z,102069.81
2018-01-26T20:00:47.122Z,102070.72
2018-01-26T20:03:32.410Z,102074.25
2018-01-26T20:06:06.488Z,102074.79
2018-01-26T20:08:40.565Z,102078.58
2018-01-26T20:11:09.472Z,102073.69
2018-01-26T20:13:40.153Z,102078.46
2018-01-26T20:16:08.644Z,102074.08
2018-01-26T20:18:37.329Z,102074.36
2018-01-26T20:21:05.828Z,102076.24
2018-01-26T20:23:34.303Z,102074.89
2018-01-26T20:26:02.771Z,102077.20
2018-01-26T20:28:31.192Z,102084.08
2018-01-26T20:31:03.962Z,102080.45
2018-01-26T20:33:33.324Z,102096.27
2018-01-26T20:36:01.731Z,102089.08
2018-01-26T20:38:32.668Z,102087.95
2018-01-26T20:41:01.076Z,102089.12
2018-01-26T20:43:29.551Z,102093.03
2018-01-26T20:46:05.701Z,102089.38
2018-01-26T20:48:34.894Z,102091.91
2018-01-26T20:51:07.219Z,102102.39
2018-01-26T20:53:39.423Z,102106.93
2018-01-26T20:56:07.988Z,102119.43
2018-01-26T20:58:36.494Z,102123.91
2018-01-26T21:01:05.308Z,102124.28
2018-01-26T21:03:33.963Z,102134.48
2018-01-26T21:06:04.345Z,102131.11
2018-01-26T21:08:33.622Z,102132.92
2018-01-26T21:11:02.267Z,102133.28
2018-01-26T21:13:31.084Z,102138.05
2018-01-26T21:16:01.893Z,102137.80
2018-01-26T21:18:34.193Z,102135.20
2018-01-26T21:21:07.152Z,102136.93
2018-01-26T21:23:37.819Z,102135.32
2018-01-26T21:26:08.097Z,102147.45
2018-01-26T21:28:36.793Z,102155.46
2018-01-26T21:31:05.849Z,102156.26
2018-01-26T21:33:35.511Z,102162.81
2018-01-26T21:36:05.309Z,102166.48
2018-01-26T21:38:36.257Z,102180.05
2018-01-26T21:41:04.723Z,102171.45
2018-01-26T21:43:33.427Z,102171.86
2018-01-26T21:46:04.152Z,102179.31
2018-01-26T21:48:34.503Z,102177.65
2018-01-26T21:51:03.957Z,102182.66
2018-01-26T21:53:32.773Z,102182.78
2018-01-26T21:56:01.651Z,102194.47
2018-01-26T21:58:31.049Z,102193.76
2018-01-26T22:00:59.838Z,102185.53
2018-01-26T22:03:29.299Z,102181.58
2018-01-26T22:06:03.532Z,102182.93
2018-01-26T22:08:32.049Z,102186.04
2018-01-26T22:11:01.529Z,102189.37
2018-01-26T22:13:31.443Z,102192.80
2018-01-26T22:16:00.190Z,102196.91
2018-01-26T22:18:28.739Z,102203.97
2018-01-26T22:20:57.661Z,102210.27
2018-01-26T22:23:26.657Z,102205.59
2018-01-26T22:25:55.478Z,102205.14
2018-01-26T22:28:24.988Z,102216.25
2018-01-26T22:30:53.498Z,102223.45
2018-01-26T22:33:21.975Z,102225.48
2018-01-26T22:35:50.903Z,102238.75
2018-01-26T22:38:19.428Z,102237.37
2018-01-26T22:40:49.548Z,102240.90
2018-01-26T22:43:18.769Z,102239.22
2018-01-26T22:45:47.349Z,102235.72
2018-01-26T22:48:15.912Z,102251.71
2018-01-26T22:50:45.014Z,102247.86
2018-01-26T22:53:13.599Z,102254.11
2018-01-26T22:55:42.096Z,102261.80
2018-01-26T22:58:11.888Z,102257.39
2018-01-26T23:00:40.416Z,102259.78
2018-01-26T23:03:09.654Z,102267.55
2018-01-26T23:05:39.904Z,102272.50
2018-01-26T23:08:08.350Z,102276.09
2018-01-26T23:10:36.780Z,102280.95
2018-01-26T23:13:05.427Z,102282.59
2018-01-26T23:15:33.947Z,102281.75
2018-01-26T23:18:02.637Z,102293.31
2018-01-26T23:20:32.724Z,102293.83
2018-01-26T23:23:01.225Z,102292.14
2018-01-26T23:25:29.664Z,102299.62
2018-01-26T23:27:58.301Z,102293.09
2018-01-26T23:30:26.777Z,102302.45
2018-01-26T23:32:55.207Z,102302.60
2018-01-26T23:35:24.474Z,102303.56
2018-01-26T23:37:53.633Z,102301.73
2018-01-26T23:40:22.220Z,102308.41
2018-01-26T23:42:50.812Z,102304.45
2018-01-26T23:45:19.592Z,102302.73
2018-01-26T23:47:52.583Z,102307.32
2018-01-26T23:50:21.123Z,102300.58
2018-01-26T23:52:51.397Z,102303.16
2018-01-26T23:55:20.033Z,102303.63
2018-01-26T23:57:48.727Z,102310.96
